Time;durP1;ratioP1;P1;durP2;ratioP2;P2;SDS_P1;SDS_P2;PMS_P1;PMS_P2;Temp;Humidity;BMP_temperature;BMP_pressure;BME280_temperature;BME280_humidity;BME280_pressure;Samples;Min_cycle;Max_cycle;Signal;HPM_P1;HPM_P2
2023/09/28 00:01:40;;;;;;;14.93;10.55;;;15.50;99.90;;;;;;5033632;28;20093;-78
2023/09/28 00:04:06;;;;;;;17.67;11.10;;;15.40;99.90;;;;;;5031837;28;20121;-77
2023/09/28 00:06:32;;;;;;;14.88;10.65;;;15.40;99.90;;;;;;5033534;28;20092;-77
2023/09/28 00:08:58;;;;;;;24.35;11.25;;;15.40;99.90;;;;;;5033398;28;20032;-79
2023/09/28 00:11:24;;;;;;;22.10;10.73;;;;;;;;;;5033230;28;20025;-77
2023/09/28 00:13:50;;;;;;;16.17;10.52;;;15.40;99.90;;;;;;5033406;28;20025;-78
2023/09/28 00:16:15;;;;;;;18.50;10.18;;;15.40;99.90;;;;;;5033321;28;20017;-80
2023/09/28 00:18:41;;;;;;;20.98;10.55;;;15.30;99.90;;;;;;5032928;28;20099;-78
2023/09/28 00:21:07;;;;;;;20.60;10.25;;;15.30;99.90;;;;;;5038947;28;20025;-79
2023/09/28 00:23:33;;;;;;;15.23;10.45;;;15.30;99.90;;;;;;5044291;28;20028;-78
2023/09/28 00:25:59;;;;;;;18.10;10.27;;;15.20;99.90;;;;;;5033111;28;20030;-78
2023/09/28 00:28:25;;;;;;;16.05;11.52;;;15.20;99.90;;;;;;5041596;28;20067;-79
2023/09/28 00:30:52;;;;;;;18.13;11.30;;;15.20;99.90;;;;;;5051301;28;20075;-78
2023/09/28 00:33:18;;;;;;;16.05;9.60;;;15.20;99.90;;;;;;5041739;28;20033;-77
2023/09/28 00:35:44;;;;;;;18.80;10.32;;;;;;;;;;5038674;28;20032;-77
2023/09/28 00:38:10;;;;;;;19.98;10.20;;;;;;;;;;5050495;28;20021;-77
2023/09/28 00:40:39;;;;;;;19.02;10.48;;;;;;;;;;5054009;28;20475;-77
2023/09/28 00:43:06;;;;;;;20.85;10.73;;;;;;;;;;5050875;28;20452;-78
2023/09/28 00:45:32;;;;;;;13.73;9.25;;;;;;;;;;5045119;28;20045;-76
2023/09/28 00:48:02;;;;;;;22.02;10.00;;;;;;;;;;5047655;28;20515;-77
2023/09/28 00:50:31;;;;;;;18.13;11.05;;;;;;;;;;5040618;28;20021;-80
2023/09/28 00:53:00;;;;;;;17.38;10.70;;;;;;;;;;5041980;28;20017;-78
2023/09/28 00:55:30;;;;;;;21.83;10.55;;;;;;;;;;5046379;28;20017;-78
2023/09/28 00:58:02;;;;;;;21.77;10.85;;;;;;;;;;5040547;28;20044;-76
2023/09/28 01:00:31;;;;;;;17.70;11.70;;;;;;;;;;5046906;28;20021;-77
2023/09/28 01:03:02;;;;;;;17.50;11.90;;;15.10;99.90;;;;;;5044643;28;20014;-80
2023/09/28 01:05:33;;;;;;;19.42;10.60;;;15.10;99.90;;;;;;5045084;28;20053;-77
2023/09/28 01:14:27;;;;;;;23.52;13.05;;;14.90;99.90;;;;;;5057531;28;20586;-77
2023/09/28 01:16:52;;;;;;;22.88;12.73;;;15.00;99.90;;;;;;5062133;28;20021;-76
2023/09/28 01:19:18;;;;;;;19.08;12.02;;;14.90;99.90;;;;;;5050681;28;20043;-78
2023/09/28 01:21:44;;;;;;;18.17;12.18;;;14.90;99.90;;;;;;5051140;28;20104;-77
2023/09/28 01:24:10;;;;;;;22.92;13.38;;;14.90;99.90;;;;;;5050710;28;20075;-77
2023/09/28 01:26:36;;;;;;;17.80;11.60;;;14.90;99.90;;;;;;5034429;28;20030;-79
2023/09/28 01:29:02;;;;;;;21.65;12.13;;;14.90;99.90;;;;;;5043301;28;20444;-78
2023/09/28 01:31:28;;;;;;;22.80;12.50;;;14.90;99.90;;;;;;5050947;28;20361;-79
2023/09/28 01:33:54;;;;;;;17.15;11.90;;;14.90;99.90;;;;;;5049786;28;20029;-78
2023/09/28 01:36:20;;;;;;;20.30;10.77;;;14.90;99.90;;;;;;5050500;28;20036;-78
2023/09/28 01:39:07;;;;;;;21.20;10.95;;;14.90;99.90;;;;;;5050743;28;20056;-78
2023/09/28 01:41:33;;;;;;;20.85;11.45;;;14.90;99.90;;;;;;5055167;28;20022;-77
2023/09/28 01:43:59;;;;;;;22.35;12.10;;;14.80;99.90;;;;;;5050735;28;20025;-80
2023/09/28 01:46:25;;;;;;;18.60;10.60;;;14.80;99.90;;;;;;5051626;28;20028;-78
2023/09/28 01:48:50;;;;;;;18.45;10.57;;;14.80;99.90;;;;;;5052375;28;20021;-78
2023/09/28 01:51:16;;;;;;;18.85;10.88;;;14.80;99.90;;;;;;5056600;28;20033;-78
2023/09/28 01:53:42;;;;;;;30.55;11.32;;;14.60;99.90;;;;;;5051327;28;20475;-78
2023/09/28 01:56:08;;;;;;;19.83;11.73;;;14.50;99.90;;;;;;5056363;28;20475;-79
2023/09/28 01:58:33;;;;;;;16.20;11.15;;;14.50;99.90;;;;;;5053019;28;20376;-79
2023/09/28 02:00:59;;;;;;;26.27;11.43;;;14.40;99.90;;;;;;5060467;28;20024;-78
2023/09/28 02:03:25;;;;;;;23.80;12.02;;;14.20;99.90;;;;;;5050729;28;20040;-78
2023/09/28 02:05:52;;;;;;;19.98;11.98;;;14.10;99.90;;;;;;5056700;28;20024;-77
2023/09/28 02:08:18;;;;;;;15.07;11.25;;;14.10;99.90;;;;;;5048759;28;20479;-80
2023/09/28 02:10:44;;;;;;;22.48;12.38;;;14.10;99.90;;;;;;5056343;28;20099;-79
2023/09/28 02:13:10;;;;;;;19.83;11.68;;;14.00;99.90;;;;;;5066802;28;20448;-76
2023/09/28 02:15:35;;;;;;;31.88;13.00;;;14.00;99.90;;;;;;5064977;28;20028;-77
2023/09/28 02:18:01;;;;;;;21.63;13.65;;;14.00;99.90;;;;;;5049820;28;20026;-78
2023/09/28 02:20:30;;;;;;;21.15;12.32;;;14.00;99.90;;;;;;5054647;28;20045;-78
2023/09/28 02:22:55;;;;;;;20.48;12.30;;;14.00;99.90;;;;;;5068267;28;20027;-78
2023/09/28 02:25:24;;;;;;;21.13;12.07;;;14.00;99.90;;;;;;5043165;28;20100;-78
2023/09/28 02:27:51;;;;;;;20.02;12.55;;;14.10;99.90;;;;;;5035359;28;20121;-78
2023/09/28 02:30:19;;;;;;;18.27;12.13;;;14.00;99.90;;;;;;5036142;28;20039;-77
2023/09/28 02:32:46;;;;;;;18.52;12.68;;;14.00;99.90;;;;;;5047241;28;20029;-77
2023/09/28 02:35:16;;;;;;;24.40;11.80;;;14.10;99.90;;;;;;5034555;28;20022;-77
2023/09/28 02:37:44;;;;;;;19.77;12.15;;;14.10;99.90;;;;;;5034975;28;20124;-79
2023/09/28 02:40:12;;;;;;;25.70;12.43;;;14.10;99.90;;;;;;5036558;28;20017;-78
2023/09/28 02:42:38;;;;;;;20.52;11.45;;;14.10;99.90;;;;;;5042942;28;20044;-77
2023/09/28 02:45:11;;;;;;;17.67;11.77;;;14.10;99.90;;;;;;5035984;28;20067;-78
2023/09/28 02:47:41;;;;;;;15.23;10.10;;;14.10;99.90;;;;;;5035029;28;20033;-79
2023/09/28 02:50:11;;;;;;;24.88;11.80;;;14.10;99.90;;;;;;5036808;28;20021;-79
2023/09/28 02:52:41;;;;;;;21.27;11.68;;;14.10;99.90;;;;;;5045055;28;20048;-77
2023/09/28 02:55:08;;;;;;;18.77;11.70;;;14.10;99.90;;;;;;5048923;28;20025;-78
2023/09/28 02:57:35;;;;;;;20.48;11.25;;;14.10;99.90;;;;;;5042426;28;20032;-77
2023/09/28 03:00:11;;;;;;;16.45;11.85;;;14.10;99.90;;;;;;5037868;28;20021;-79
2023/09/28 03:02:37;;;;;;;19.13;11.52;;;14.10;99.90;;;;;;5042611;28;20029;-78
2023/09/28 03:05:04;;;;;;;21.13;11.38;;;14.10;99.90;;;;;;5039277;28;20467;-77
2023/09/28 03:07:29;;;;;;;18.90;11.63;;;14.10;99.90;;;;;;5035377;28;20061;-78
2023/09/28 03:09:55;;;;;;;19.45;11.48;;;14.00;99.90;;;;;;5039274;28;20053;-77
2023/09/28 03:12:21;;;;;;;23.77;11.88;;;14.00;99.90;;;;;;5039531;28;20053;-78
2023/09/28 03:14:47;;;;;;;25.13;12.43;;;14.10;99.90;;;;;;5041743;28;20099;-77
2023/09/28 03:17:13;;;;;;;24.67;13.40;;;14.00;99.90;;;;;;5039093;28;20530;-78
2023/09/28 03:19:38;;;;;;;17.65;12.40;;;14.00;99.90;;;;;;5035045;28;20021;-79
2023/09/28 03:22:04;;;;;;;19.10;12.05;;;14.00;99.90;;;;;;5035784;28;20352;-78
2023/09/28 03:24:31;;;;;;;18.05;12.70;;;14.00;99.90;;;;;;5035594;28;20464;-77
2023/09/28 03:26:56;;;;;;;21.85;11.73;;;14.00;99.90;;;;;;5033936;28;20499;-78
2023/09/28 03:29:22;;;;;;;19.30;11.70;;;14.00;99.90;;;;;;5035189;28;20029;-79
2023/09/28 03:31:48;;;;;;;21.52;11.85;;;14.00;99.90;;;;;;5034158;28;20025;-79
2023/09/28 03:34:14;;;;;;;18.77;12.27;;;14.00;99.90;;;;;;5034605;28;20029;-77
2023/09/28 03:36:39;;;;;;;17.30;11.05;;;14.00;99.90;;;;;;5034316;28;20014;-77
2023/09/28 03:39:05;;;;;;;22.88;11.93;;;14.00;99.90;;;;;;5035137;28;20033;-78
2023/09/28 03:41:31;;;;;;;22.00;11.13;;;14.00;99.90;;;;;;5041583;28;20462;-77
2023/09/28 03:43:57;;;;;;;20.27;10.82;;;14.00;99.90;;;;;;5038290;28;20029;-78
2023/09/28 03:46:22;;;;;;;22.25;11.57;;;13.90;99.90;;;;;;5035722;28;20108;-77
2023/09/28 03:48:48;;;;;;;20.08;11.18;;;13.80;99.90;;;;;;5036255;28;20162;-76
2023/09/28 03:59:48;;;;;;;16.25;11.15;;;13.70;99.90;;;;;;5158445;27;20329;-76
2023/09/28 04:02:14;;;;;;;18.63;10.82;;;13.70;99.90;;;;;;5151721;27;20441;-78
2023/09/28 04:04:40;;;;;;;22.00;11.07;;;13.70;99.90;;;;;;5151595;27;20026;-77
2023/09/28 04:07:07;;;;;;;20.95;11.23;;;13.60;99.90;;;;;;5133727;27;20026;-77
2023/09/28 04:09:32;;;;;;;21.08;10.48;;;13.60;99.90;;;;;;5152279;27;20023;-77
2023/09/28 04:11:59;;;;;;;19.25;10.45;;;13.60;99.90;;;;;;5151747;27;20408;-78
2023/09/28 04:14:25;;;;;;;17.33;9.90;;;13.70;99.90;;;;;;5133249;27;20023;-76
2023/09/28 04:16:51;;;;;;;18.65;10.13;;;13.60;99.90;;;;;;5151546;27;20457;-78
2023/09/28 04:19:17;;;;;;;18.17;10.30;;;13.60;99.90;;;;;;5133064;27;20361;-77
2023/09/28 04:21:42;;;;;;;20.90;10.90;;;13.60;99.90;;;;;;5133144;27;20023;-77
2023/09/28 04:24:08;;;;;;;52.45;28.45;;;13.60;99.90;;;;;;5144454;27;20068;-77
2023/09/28 04:26:34;;;;;;;48.17;27.42;;;13.60;99.90;;;;;;5133159;27;20026;-78
2023/09/28 04:29:00;;;;;;;31.48;15.90;;;13.50;99.90;;;;;;5151130;27;20038;-77
2023/09/28 04:31:26;;;;;;;27.85;14.00;;;13.50;99.90;;;;;;5151707;27;20023;-76
2023/09/28 04:33:52;;;;;;;24.75;14.40;;;13.40;99.90;;;;;;5133169;27;20022;-76
2023/09/28 04:36:18;;;;;;;27.70;13.45;;;13.40;99.90;;;;;;5132699;27;20030;-77
2023/09/28 04:38:44;;;;;;;24.05;12.80;;;13.40;99.90;;;;;;5151579;27;20027;-76
2023/09/28 04:41:19;;;;;;;46.95;26.00;;;13.40;99.90;;;;;;5132811;27;20023;-77
2023/09/28 04:43:45;;;;;;;91.15;58.42;;;13.30;99.90;;;;;;5133689;27;20034;-74
2023/09/28 04:46:11;;;;;;;40.60;21.38;;;13.30;99.90;;;;;;5151881;27;20031;-77
2023/09/28 04:48:37;;;;;;;24.90;15.43;;;13.20;99.90;;;;;;5152240;27;20105;-77
2023/09/28 04:51:03;;;;;;;30.45;20.67;;;13.20;99.90;;;;;;5149478;27;20089;-74
2023/09/28 04:53:29;;;;;;;32.22;18.73;;;13.20;99.90;;;;;;5150228;27;20023;-74
2023/09/28 04:55:57;;;;;;;27.77;16.40;;;13.20;99.90;;;;;;5150394;27;20084;-75
2023/09/28 04:58:23;;;;;;;21.20;13.73;;;13.20;99.90;;;;;;5150398;27;20043;-74
2023/09/28 05:00:48;;;;;;;20.42;11.20;;;13.20;99.90;;;;;;5152126;27;20019;-75
2023/09/28 05:03:14;;;;;;;24.17;10.85;;;13.10;99.90;;;;;;5150205;27;20019;-76
2023/09/28 05:05:40;;;;;;;30.17;12.35;;;13.20;99.90;;;;;;5149541;27;20044;-75
2023/09/28 05:08:05;;;;;;;21.45;10.10;;;13.20;99.90;;;;;;5150667;27;20039;-75
2023/09/28 05:10:31;;;;;;;19.52;10.95;;;13.30;99.90;;;;;;5140409;27;20023;-74
2023/09/28 05:12:58;;;;;;;19.70;10.77;;;13.30;99.90;;;;;;5136457;27;20034;-76
2023/09/28 05:15:24;;;;;;;15.68;10.13;;;13.30;99.90;;;;;;5137302;27;20043;-75
2023/09/28 05:17:50;;;;;;;18.90;10.60;;;13.40;99.90;;;;;;5136974;27;20358;-76
2023/09/28 05:20:15;;;;;;;22.10;10.45;;;13.40;99.90;;;;;;5137121;27;20026;-75
2023/09/28 05:22:43;;;;;;;22.63;12.32;;;13.50;99.90;;;;;;5118990;27;20369;-75
2023/09/28 05:25:09;;;;;;;23.75;12.32;;;13.50;99.90;;;;;;5118728;27;20450;-74
2023/09/28 05:27:35;;;;;;;24.40;11.90;;;13.50;99.90;;;;;;5137446;27;20023;-75
2023/09/28 05:30:01;;;;;;;21.80;11.90;;;13.50;99.90;;;;;;5137350;27;20365;-76
2023/09/28 05:32:27;;;;;;;26.38;11.50;;;13.60;99.90;;;;;;5137047;27;20015;-76
2023/09/28 05:34:53;;;;;;;21.85;11.63;;;13.50;99.90;;;;;;5137199;27;20023;-74
2023/09/28 05:37:18;;;;;;;21.48;11.07;;;13.60;99.90;;;;;;5136972;27;20365;-75
2023/09/28 05:39:44;;;;;;;23.52;11.88;;;13.60;99.90;;;;;;5136505;27;20046;-77
2023/09/28 05:42:10;;;;;;;19.73;10.93;;;13.60;99.90;;;;;;5137265;27;20053;-75
2023/09/28 05:44:35;;;;;;;16.83;10.60;;;13.70;99.90;;;;;;5137376;27;20019;-78
2023/09/28 05:47:01;;;;;;;17.35;10.63;;;13.80;99.90;;;;;;5117963;27;20065;-76
2023/09/28 05:49:27;;;;;;;21.23;10.95;;;13.80;99.90;;;;;;5137030;27;20023;-76
2023/09/28 05:51:53;;;;;;;24.20;12.10;;;13.90;99.90;;;;;;5136697;27;20023;-74
2023/09/28 05:54:19;;;;;;;19.75;11.80;;;14.00;99.90;;;;;;5136163;27;20054;-75
2023/09/28 05:56:45;;;;;;;19.58;11.82;;;14.10;99.90;;;;;;5136849;27;20071;-75
2023/09/28 05:59:11;;;;;;;19.88;12.02;;;14.20;99.90;;;;;;5136866;27;20114;-75
2023/09/28 06:01:39;;;;;;;28.35;15.07;;;14.30;99.90;;;;;;5137077;27;20023;-75
2023/09/28 06:04:06;;;;;;;23.17;14.55;;;14.40;99.90;;;;;;5117410;27;20046;-76
2023/09/28 06:06:31;;;;;;;23.52;13.85;;;14.40;99.90;;;;;;5136476;27;20019;-75
2023/09/28 06:08:57;;;;;;;27.00;14.60;;;14.50;99.90;;;;;;5136369;27;20079;-73
2023/09/28 06:11:23;;;;;;;24.70;13.05;;;14.60;99.90;;;;;;5136600;27;20023;-75
2023/09/28 06:13:49;;;;;;;20.92;13.02;;;14.70;99.90;;;;;;5136297;27;20035;-76
2023/09/28 06:16:15;;;;;;;40.90;18.98;;;14.80;99.90;;;;;;5136270;27;20038;-75
2023/09/28 06:18:42;;;;;;;23.75;16.13;;;14.90;99.90;;;;;;5136515;27;20030;-74
2023/09/28 06:21:08;;;;;;;36.13;17.77;;;14.90;99.90;;;;;;5135211;27;20457;-74
2023/09/28 06:23:35;;;;;;;41.45;23.30;;;15.00;99.90;;;;;;5135928;27;20023;-72
2023/09/28 06:26:01;;;;;;;32.33;18.52;;;15.20;99.90;;;;;;5136308;27;20046;-73
2023/09/28 06:28:27;;;;;;;29.98;17.48;;;15.30;99.90;;;;;;5135606;27;20031;-74
2023/09/28 06:30:54;;;;;;;38.40;17.88;;;15.40;99.90;;;;;;5136289;27;20102;-74
2023/09/28 06:33:24;;;;;;;41.92;19.88;;;15.40;99.90;;;;;;5136104;27;20031;-74
2023/09/28 06:35:51;;;;;;;41.78;19.80;;;15.60;99.90;;;;;;5117360;27;20096;-73
2023/09/28 06:38:16;;;;;;;34.55;19.30;;;15.70;99.90;;;;;;5136107;27;20430;-73
2023/09/28 06:40:45;;;;;;;33.58;18.58;;;15.80;99.90;;;;;;5135772;27;20080;-72
2023/09/28 06:43:11;;;;;;;38.63;19.15;;;16.00;99.90;;;;;;5135667;27;20101;-73
2023/09/28 06:45:37;;;;;;;33.40;20.30;;;16.10;99.90;;;;;;5136187;27;20069;-73
2023/09/28 06:48:03;;;;;;;30.48;20.05;;;16.20;99.90;;;;;;5135509;27;20039;-73
2023/09/28 06:50:29;;;;;;;38.75;22.58;;;;;;;;;;5135619;27;20027;-74
2023/09/28 06:52:55;;;;;;;50.58;23.98;;;;;;;;;;5135476;27;20026;-74
2023/09/28 06:55:24;;;;;;;48.58;26.85;;;;;;;;;;5135566;27;20354;-74
2023/09/28 06:57:51;;;;;;;48.92;29.42;;;;;;;;;;5135259;27;20047;-74
2023/09/28 07:00:17;;;;;;;51.65;29.42;;;;;;;;;;5135686;27;20513;-75
2023/09/28 07:02:47;;;;;;;65.65;31.30;;;;;;;;;;5135214;27;20027;-74
2023/09/28 07:05:14;;;;;;;52.22;33.03;;;;;;;;;;5116682;27;20478;-74
2023/09/28 07:07:41;;;;;;;47.22;30.63;;;17.50;99.90;;;;;;5135223;27;20087;-72
2023/09/28 07:10:07;;;;;;;54.50;31.02;;;17.60;99.90;;;;;;5135057;27;20042;-74
2023/09/28 07:12:33;;;;;;;39.83;25.85;;;17.70;99.90;;;;;;5116947;27;20365;-75
2023/09/28 07:14:59;;;;;;;55.50;25.48;;;17.80;99.90;;;;;;5135340;27;20438;-73
2023/09/28 07:17:25;;;;;;;42.45;24.33;;;17.90;99.90;;;;;;5135109;27;20076;-74
2023/09/28 07:19:52;;;;;;;41.65;22.33;;;;;;;;;;5116845;27;20030;-74
2023/09/28 07:22:21;;;;;;;33.53;19.83;;;18.30;99.90;;;;;;5134896;27;20377;-73
2023/09/28 07:24:47;;;;;;;29.05;17.58;;;18.30;99.90;;;;;;5116457;27;20023;-74
2023/09/28 07:27:13;;;;;;;34.63;18.80;;;;;;;;;;5133082;27;20031;-75
2023/09/28 07:29:38;;;;;;;36.17;17.85;;;18.90;99.90;;;;;;5135223;27;20030;-75
2023/09/28 07:32:06;;;;;;;28.30;17.80;;;18.80;99.90;;;;;;5134749;27;20023;-73
2023/09/28 07:34:32;;;;;;;36.05;19.00;;;18.80;99.90;;;;;;5116159;27;20026;-75
2023/09/28 07:36:58;;;;;;;32.40;18.13;;;18.90;99.90;;;;;;5124994;27;20106;-75
2023/09/28 07:39:24;;;;;;;29.88;16.48;;;19.00;99.90;;;;;;5131611;27;20079;-74
2023/09/28 07:41:51;;;;;;;32.55;16.35;;;19.10;99.90;;;;;;5134928;27;20373;-76
2023/09/28 07:44:19;;;;;;;25.17;13.77;;;;;;;;;;5134763;27;20034;-76
2023/09/28 07:46:46;;;;;;;22.90;13.18;;;19.40;99.90;;;;;;5115131;27;20428;-75
2023/09/28 07:49:14;;;;;;;21.83;13.15;;;;;;;;;;5134497;27;20043;-76
2023/09/28 07:51:40;;;;;;;24.65;14.18;;;19.80;99.90;;;;;;5134510;27;20033;-75
2023/09/28 07:54:06;;;;;;;20.38;12.23;;;19.90;99.90;;;;;;5134109;27;20087;-75
2023/09/28 07:56:33;;;;;;;21.52;12.75;;;20.10;99.90;;;;;;5134112;28;20019;-75
